Time;durP1;ratioP1;P1;durP2;ratioP2;P2;SDS_P1;SDS_P2;PMS_P1;PMS_P2;Temp;Humidity;BMP_temperature;BMP_pressure;BME280_temperature;BME280_humidity;BME280_pressure;Samples;Min_cycle;Max_cycle;Signal;HPM_P1;HPM_P2
2022/11/29 00:00:33;;;;;;;;;;;28.80;71.90;;;;;;5061568;28;20035;-72
2022/11/29 00:03:00;;;;;;;;;;;28.80;72.20;;;;;;5072713;28;20274;-72
2022/11/29 00:05:27;;;;;;;;;;;28.90;73.30;;;;;;5066804;28;19913;-75
2022/11/29 00:07:54;;;;;;;;;;;29.00;72.10;;;;;;5067756;28;19912;-76
2022/11/29 00:10:20;;;;;;;;;;;29.00;72.00;;;;;;5066143;28;20677;-74
2022/11/29 00:12:47;;;;;;;;;;;29.10;71.50;;;;;;5059558;28;19919;-75
2022/11/29 00:15:14;;;;;;;;;;;29.20;71.50;;;;;;5064818;28;19916;-74
2022/11/29 00:17:41;;;;;;;;;;;29.30;72.30;;;;;;5065716;28;19920;-75
2022/11/29 00:20:11;;;;;;;;;;;29.30;71.10;;;;;;5070393;28;19923;-75
2022/11/29 00:22:38;;;;;;;;;;;29.40;72.80;;;;;;5067672;28;19966;-74
2022/11/29 00:25:06;;;;;;;;;;;29.40;72.90;;;;;;5072421;28;20379;-78
2022/11/29 00:27:32;;;;;;;;;;;29.50;71.70;;;;;;5071410;28;20323;-77
2022/11/29 00:29:59;;;;;;;;;;;29.50;72.00;;;;;;5067320;28;19913;-75
2022/11/29 00:32:26;;;;;;;;;;;29.50;71.10;;;;;;5063283;28;20015;-79
2022/11/29 00:34:52;;;;;;;;;;;29.50;71.70;;;;;;5065557;28;19919;-77
2022/11/29 00:37:19;;;;;;;;;;;29.60;71.30;;;;;;5065955;28;19966;-71
2022/11/29 00:39:46;;;;;;;;;;;29.60;71.60;;;;;;5066602;28;20652;-76
2022/11/29 00:42:14;;;;;;;;;;;29.60;70.30;;;;;;5057094;28;19916;-78
2022/11/29 00:44:41;;;;;;;;;;;29.80;72.80;;;;;;5059809;28;19912;-78
2022/11/29 00:47:07;;;;;;;;;;;29.90;70.70;;;;;;5071962;28;20041;-78
2022/11/29 00:49:34;;;;;;;;;;;30.00;70.20;;;;;;5072378;28;19912;-76
2022/11/29 00:52:01;;;;;;;;;;;30.00;70.90;;;;;;5070725;28;19987;-75
2022/11/29 00:54:27;;;;;;;;;;;30.20;70.10;;;;;;5070677;28;19963;-79
2022/11/29 00:56:54;;;;;;;;;;;30.20;69.70;;;;;;5069179;28;19921;-76
2022/11/29 00:59:21;;;;;;;;;;;30.30;70.60;;;;;;5058460;28;20287;-78
2022/11/29 01:01:48;;;;;;;;;;;30.40;69.20;;;;;;5072399;28;19920;-77
2022/11/29 01:04:14;;;;;;;;;;;30.40;71.50;;;;;;5071439;28;19920;-76
2022/11/29 01:06:41;;;;;;;;;;;30.40;71.30;;;;;;5064715;28;20392;-78
2022/11/29 01:09:08;;;;;;;;;;;30.50;69.90;;;;;;5069861;28;19955;-74
2022/11/29 01:11:35;;;;;;;;;;;30.50;69.30;;;;;;5071276;28;20027;-77
2022/11/29 01:14:02;;;;;;;;;;;30.60;69.70;;;;;;5064524;28;19913;-77
2022/11/29 01:16:30;;;;;;;;;;;30.80;72.90;;;;;;5066197;28;19920;-75
2022/11/29 01:18:57;;;;;;;;;;;31.00;68.80;;;;;;5065718;28;19935;-76
2022/11/29 01:21:24;;;;;;;;;;;30.90;67.60;;;;;;5071992;28;19916;-75
2022/11/29 01:23:52;;;;;;;;;;;30.70;70.90;;;;;;5061573;28;19959;-75
2022/11/29 01:26:21;;;;;;;;;;;30.80;68.40;;;;;;5045078;28;19920;-73
2022/11/29 01:28:49;;;;;;;;;;;30.90;68.80;;;;;;5071162;28;20387;-74
2022/11/29 01:31:23;;;;;;;;;;;31.10;70.90;;;;;;5065248;28;19916;-77
2022/11/29 01:33:52;;;;;;;;;;;31.20;68.90;;;;;;5055510;28;19992;-76
2022/11/29 01:36:19;;;;;;;;;;;31.40;69.80;;;;;;5072515;28;20468;-76
2022/11/29 01:38:46;;;;;;;;;;;31.50;69.10;;;;;;5071572;28;19935;-76
2022/11/29 01:41:14;;;;;;;;;;;31.60;69.40;;;;;;5070815;28;20046;-76
2022/11/29 01:43:53;;;;;;;;;;;31.50;67.40;;;;;;5073124;28;19909;-76
2022/11/29 01:46:20;;;;;;;;;;;31.40;65.90;;;;;;5075848;28;19916;-73
2022/11/29 01:48:47;;;;;;;;;;;31.40;68.10;;;;;;5076407;28;19916;-75
2022/11/29 01:51:14;;;;;;;;;;;31.60;68.10;;;;;;5075844;28;19908;-75
2022/11/29 01:53:41;;;;;;;;;;;31.60;70.60;;;;;;5069538;28;19920;-76
2022/11/29 01:56:08;;;;;;;;;;;31.60;66.00;;;;;;5053005;28;19917;-76
2022/11/29 01:58:35;;;;;;;;;;;31.60;69.50;;;;;;5063938;28;20381;-77
2022/11/29 02:01:02;;;;;;;;;;;31.80;68.30;;;;;;5063732;28;19995;-77
2022/11/29 02:03:28;;;;;;;;;;;31.90;66.10;;;;;;5052499;28;19920;-77
2022/11/29 02:05:55;;;;;;;;;;;31.70;66.50;;;;;;5052514;28;19913;-75
2022/11/29 02:08:29;;;;;;;;;;;31.70;66.30;;;;;;5069962;28;20012;-74
2022/11/29 02:10:58;;;;;;;;;;;31.60;64.90;;;;;;5070867;28;19920;-75
2022/11/29 02:13:28;;;;;;;;;;;31.60;65.10;;;;;;5052511;28;19912;-76
2022/11/29 02:16:01;;;;;;;;;;;31.50;65.80;;;;;;5063079;28;19917;-74
2022/11/29 02:18:38;;;;;;;;;;;31.70;65.60;;;;;;5064740;28;20342;-74
2022/11/29 02:21:15;;;;;;;;;;;31.60;65.90;;;;;;5073258;28;20036;-76
2022/11/29 02:23:51;;;;;;;;;;;30.80;65.40;;;;;;5074038;28;20362;-72
2022/11/29 02:26:35;;;;;;;;;;;30.80;67.00;;;;;;5071636;28;19922;-77
2022/11/29 02:29:21;;;;;;;;;;;31.10;67.80;;;;;;5071809;28;20003;-77
2022/11/29 02:31:59;;;;;;;;;;;31.20;65.80;;;;;;5063697;28;19949;-76
2022/11/29 02:34:40;;;;;;;;;;;31.50;69.00;;;;;;5068137;28;19924;-75
2022/11/29 02:37:07;;;;;;;;;;;31.90;65.60;;;;;;5071436;28;19921;-75
2022/11/29 02:39:51;;;;;;;;;;;32.10;67.00;;;;;;5071045;28;20391;-75
2022/11/29 02:42:27;;;;;;;;;;;31.80;62.40;;;;;;5071110;28;19920;-74
2022/11/29 02:44:57;;;;;;;;;;;31.40;63.80;;;;;;5069797;28;19916;-75
2022/11/29 02:47:41;;;;;;;;;;;31.40;65.10;;;;;;5055558;28;19938;-76
2022/11/29 02:50:17;;;;;;;;;;;31.50;64.10;;;;;;5071321;28;19916;-74
2022/11/29 02:52:47;;;;;;;;;;;31.10;63.50;;;;;;5071006;28;19924;-75
2022/11/29 02:55:42;;;;;;;;;;;31.10;64.30;;;;;;5071153;28;19913;-72
2022/11/29 02:58:09;;;;;;;;;;;30.60;64.50;;;;;;5017942;28;20016;-78
2022/11/29 03:00:40;;;;;;;;;;;30.60;67.40;;;;;;5071862;28;19915;-76
2022/11/29 03:03:27;;;;;;;;;;;30.80;65.80;;;;;;5069729;28;19913;-76
2022/11/29 03:06:01;;;;;;;;;;;31.10;65.60;;;;;;5052524;28;19916;-77
2022/11/29 03:09:06;;;;;;;;;;;31.00;64.70;;;;;;5064984;28;19913;-77
2022/11/29 03:11:44;;;;;;;;;;;30.80;64.80;;;;;;5027833;28;19921;-77
2022/11/29 03:14:23;;;;;;;;;;;30.80;64.90;;;;;;5024571;28;20494;-77
2022/11/29 03:16:50;;;;;;;;;;;30.90;66.40;;;;;;5055388;28;19990;-76
2022/11/29 03:19:39;;;;;;;;;;;30.90;64.80;;;;;;5071318;28;19948;-77
2022/11/29 03:22:11;;;;;;;;;;;30.70;65.00;;;;;;5065746;28;19967;-77
2022/11/29 03:24:41;;;;;;;;;;;30.40;66.70;;;;;;5066116;28;20075;-77
2022/11/29 03:27:20;;;;;;;;;;;30.40;65.60;;;;;;5061766;28;19920;-78
2022/11/29 03:29:55;;;;;;;;;;;30.50;65.70;;;;;;5060158;28;19908;-78
2022/11/29 03:32:27;;;;;;;;;;;30.40;64.90;;;;;;5071110;28;19951;-75
2022/11/29 03:35:12;;;;;;;;;;;30.30;66.10;;;;;;5064573;28;19913;-73
2022/11/29 03:37:42;;;;;;;;;;;30.10;66.10;;;;;;5071483;28;20472;-75
2022/11/29 03:40:12;;;;;;;;;;;29.80;64.40;;;;;;5061958;28;20308;-76
2022/11/29 03:42:39;;;;;;;;;;;29.60;66.30;;;;;;5045162;28;19916;-73
2022/11/29 03:45:44;;;;;;;;;;;29.30;67.40;;;;;;5070297;28;19916;-73
2022/11/29 03:48:39;;;;;;;;;;;28.90;67.20;;;;;;4974874;28;20004;-74
2022/11/29 03:51:06;;;;;;;;;;;28.70;68.80;;;;;;5067194;28;19912;-77
2022/11/29 03:53:41;;;;;;;;;;;28.50;66.90;;;;;;5055051;28;19913;-76
2022/11/29 03:56:39;;;;;;;;;;;28.40;67.60;;;;;;5056767;28;19924;-76
2022/11/29 03:59:14;;;;;;;;;;;28.40;67.00;;;;;;5042134;28;19909;-74
2022/11/29 04:01:59;;;;;;;;;;;28.50;67.70;;;;;;5072436;28;19925;-74
2022/11/29 04:04:28;;;;;;;;;;;28.40;66.90;;;;;;5073957;28;19916;-75
2022/11/29 04:07:01;;;;;;;;;;;28.30;67.40;;;;;;5073806;28;20275;-75
2022/11/29 04:09:37;;;;;;;;;;;28.30;68.70;;;;;;5074494;28;19912;-74
2022/11/29 04:12:03;;;;;;;;;;;28.10;68.90;;;;;;5072993;28;19957;-74
2022/11/29 04:14:33;;;;;;;;;;;27.90;69.00;;;;;;5071583;28;19954;-76
2022/11/29 04:17:12;;;;;;;;;;;27.70;69.70;;;;;;5068202;28;20389;-75
2022/11/29 04:19:51;;;;;;;;;;;27.60;69.70;;;;;;5054270;28;20326;-75
2022/11/29 04:22:17;;;;;;;;;;;27.60;71.50;;;;;;5072825;28;19916;-75
2022/11/29 04:25:02;;;;;;;;;;;27.60;71.70;;;;;;5074309;28;19919;-75
2022/11/29 04:27:37;;;;;;;;;;;27.60;72.50;;;;;;5073704;28;19916;-75
2022/11/29 04:30:04;;;;;;;;;;;27.70;71.50;;;;;;5072146;28;19936;-75
2022/11/29 04:32:34;;;;;;;;;;;27.90;73.10;;;;;;5070717;28;20363;-76
2022/11/29 04:35:06;;;;;;;;;;;27.80;72.70;;;;;;5064672;28;20371;-76
2022/11/29 04:37:48;;;;;;;;;;;27.60;72.70;;;;;;5057689;28;19917;-76
2022/11/29 04:40:25;;;;;;;;;;;27.50;73.20;;;;;;5072804;28;20008;-74
2022/11/29 04:42:55;;;;;;;;;;;27.60;74.20;;;;;;5073638;28;20326;-77
2022/11/29 04:45:40;;;;;;;;;;;27.30;76.00;;;;;;5072687;28;19912;-73
2022/11/29 04:48:06;;;;;;;;;;;27.10;75.50;;;;;;5072032;28;19917;-76
2022/11/29 04:50:39;;;;;;;;;;;27.00;74.60;;;;;;5072532;28;20363;-73
2022/11/29 04:53:15;;;;;;;;;;;27.00;75.30;;;;;;5072825;28;19923;-74
2022/11/29 04:55:44;;;;;;;;;;;27.00;75.60;;;;;;5072601;28;19923;-74
2022/11/29 04:58:33;;;;;;;;;;;27.00;76.70;;;;;;5071991;28;19921;-75
2022/11/29 05:01:15;;;;;;;;;;;26.80;76.50;;;;;;5071029;28;19909;-76
2022/11/29 05:03:59;;;;;;;;;;;26.80;75.50;;;;;;5071798;28;19962;-75
2022/11/29 05:06:37;;;;;;;;;;;26.80;77.40;;;;;;5071178;28;19921;-77
2022/11/29 05:09:24;;;;;;;;;;;26.50;76.00;;;;;;5073393;28;19924;-76
2022/11/29 05:11:53;;;;;;;;;;;26.50;77.60;;;;;;5070949;28;19927;-77
2022/11/29 05:14:24;;;;;;;;;;;26.50;76.70;;;;;;5071473;28;21306;-76
2022/11/29 05:17:09;;;;;;;;;;;26.40;76.60;;;;;;5067160;28;19930;-76
2022/11/29 05:19:51;;;;;;;;;;;26.50;76.40;;;;;;5053040;28;19916;-75
2022/11/29 05:22:23;;;;;;;;;;;26.50;77.70;;;;;;5066669;28;19917;-75
2022/11/29 05:25:12;;;;;;;;;;;26.40;78.10;;;;;;5055658;28;19909;-75
2022/11/29 05:27:45;;;;;;;;;;;26.10;78.10;;;;;;5067830;28;20010;-75
2022/11/29 05:30:22;;;;;;;;;;;25.90;79.60;;;;;;5071382;28;19912;-74
2022/11/29 05:33:07;;;;;;;;;;;26.00;80.30;;;;;;5072179;28;19916;-73
2022/11/29 05:35:45;;;;;;;;;;;25.90;80.60;;;;;;5072978;28;19960;-76
2022/11/29 05:38:30;;;;;;;;;;;25.90;81.30;;;;;;5072999;28;19923;-74
2022/11/29 05:41:16;;;;;;;;;;;25.80;81.90;;;;;;5053609;28;19916;-74
2022/11/29 05:44:01;;;;;;;;;;;25.70;81.90;;;;;;5073063;28;19917;-74
2022/11/29 05:46:37;;;;;;;;;;;25.20;82.40;;;;;;5077119;28;19999;-75
2022/11/29 05:49:12;;;;;;;;;;;25.00;83.90;;;;;;5084742;28;19944;-75
2022/11/29 05:51:41;;;;;;;;;;;25.10;84.50;;;;;;5080349;28;20013;-75
2022/11/29 05:54:14;;;;;;;;;;;25.00;83.90;;;;;;5077095;28;20003;-72
2022/11/29 05:56:47;;;;;;;;;;;24.90;84.60;;;;;;5072745;28;19920;-76
2022/11/29 05:59:33;;;;;;;;;;;25.00;85.40;;;;;;5072354;28;20355;-74
2022/11/29 06:02:00;;;;;;;;;;;25.20;85.00;;;;;;5057878;28;20260;-74
2022/11/29 06:04:44;;;;;;;;;;;25.30;83.50;;;;;;5071618;28;20267;-75
2022/11/29 06:07:14;;;;;;;;;;;25.20;83.30;;;;;;5070746;28;19927;-76
2022/11/29 06:10:00;;;;;;;;;;;25.00;82.70;;;;;;5071358;28;19947;-73
2022/11/29 06:12:29;;;;;;;;;;;24.90;83.60;;;;;;5055277;28;19934;-75
2022/11/29 06:15:05;;;;;;;;;;;24.70;83.70;;;;;;5071036;28;19916;-77
2022/11/29 06:17:35;;;;;;;;;;;24.40;84.00;;;;;;5071347;28;19920;-77
2022/11/29 06:20:09;;;;;;;;;;;24.30;84.20;;;;;;5072124;28;19915;-77
2022/11/29 06:22:50;;;;;;;;;;;24.30;85.00;;;;;;5071121;28;19912;-78
2022/11/29 06:25:45;;;;;;;;;;;24.60;85.50;;;;;;5071866;28;19943;-76
2022/11/29 06:28:21;;;;;;;;;;;24.70;84.80;;;;;;5065469;28;20397;-75
2022/11/29 06:30:51;;;;;;;;;;;24.70;84.50;;;;;;5070407;28;19920;-74
2022/11/29 06:33:27;;;;;;;;;;;24.60;84.70;;;;;;5070157;28;19926;-73
2022/11/29 06:35:54;;;;;;;;;;;24.50;84.40;;;;;;5052739;28;19917;-73
2022/11/29 06:38:22;;;;;;;;;;;24.30;85.60;;;;;;5071957;28;20274;-74
2022/11/29 06:40:49;;;;;;;;;;;24.30;85.80;;;;;;5071324;28;20007;-75
2022/11/29 06:43:17;;;;;;;;;;;23.90;86.30;;;;;;5069827;28;19916;-75
2022/11/29 06:45:48;;;;;;;;;;;23.70;86.80;;;;;;5068334;28;20278;-75
2022/11/29 06:48:18;;;;;;;;;;;23.60;87.20;;;;;;5063584;28;20036;-74
2022/11/29 06:50:48;;;;;;;;;;;23.50;87.20;;;;;;5051745;28;20379;-75
2022/11/29 06:53:33;;;;;;;;;;;23.30;86.90;;;;;;5063342;28;19951;-76
2022/11/29 06:56:02;;;;;;;;;;;23.00;87.30;;;;;;5071297;28;20011;-74
2022/11/29 06:58:31;;;;;;;;;;;22.70;87.30;;;;;;5071591;28;19909;-77
2022/11/29 07:01:16;;;;;;;;;;;22.50;87.70;;;;;;5070946;28;19920;-77
2022/11/29 07:03:43;;;;;;;;;;;22.40;87.90;;;;;;5069115;28;19916;-75
2022/11/29 07:06:18;;;;;;;;;;;22.30;88.50;;;;;;5055703;28;19958;-77
2022/11/29 07:08:45;;;;;;;;;;;22.20;88.60;;;;;;5071878;28;19908;-74
2022/11/29 07:11:13;;;;;;;;;;;22.00;88.70;;;;;;5071008;28;19924;-74
2022/11/29 07:13:39;;;;;;;;;;;21.90;89.30;;;;;;5070586;28;20008;-75
2022/11/29 07:16:12;;;;;;;;;;;21.80;89.10;;;;;;5069271;28;20036;-75
2022/11/29 07:18:48;;;;;;;;;;;21.80;89.00;;;;;;5075153;28;19963;-74
2022/11/29 07:21:38;;;;;;;;;;;21.70;90.00;;;;;;5075002;28;19912;-75
2022/11/29 07:24:22;;;;;;;;;;;21.50;90.20;;;;;;5074795;28;19912;-74
2022/11/29 07:26:58;;;;;;;;;;;21.40;90.60;;;;;;5074119;28;19916;-75
2022/11/29 07:29:40;;;;;;;;;;;21.40;90.70;;;;;;5075202;28;19916;-75
2022/11/29 07:32:13;;;;;;;;;;;21.30;91.00;;;;;;5073428;28;19917;-76
2022/11/29 07:34:51;;;;;;;;;;;21.30;90.80;;;;;;5072651;28;19924;-75
2022/11/29 07:37:35;;;;;;;;;;;21.20;90.60;;;;;;5072626;28;20496;-75
2022/11/29 07:40:25;;;;;;;;;;;21.10;90.50;;;;;;5074472;28;19994;-77
2022/11/29 07:42:52;;;;;;;;;;;21.00;90.80;;;;;;5063816;28;20019;-75
2022/11/29 07:45:30;;;;;;;;;;;20.90;91.30;;;;;;5072454;28;19913;-74
2022/11/29 07:47:57;;;;;;;;;;;20.90;91.40;;;;;;5073637;28;20286;-75
2022/11/29 07:50:25;;;;;;;;;;;20.90;91.30;;;;;;5069528;28;20044;-75
2022/11/29 07:52:53;;;;;;;;;;;20.80;91.40;;;;;;5063807;28;20542;-72
2022/11/29 07:55:20;;;;;;;;;;;20.80;91.60;;;;;;5068371;28;20291;-73
2022/11/29 07:57:48;;;;;;;;;;;20.80;91.70;;;;;;5067892;28;19916;-73
2022/11/29 08:00:15;;;;;;;;;;;20.80;91.90;;;;;;5074019;28;19991;-75
2022/11/29 08:02:42;;;;;;;;;;;20.70;92.10;;;;;;5068982;28;19966;-73
2022/11/29 08:05:09;;;;;;;;;;;20.60;92.30;;;;;;5059960;28;19963;-72
2022/11/29 08:07:37;;;;;;;;;;;20.60;92.30;;;;;;5063008;28;19913;-74
2022/11/29 08:10:05;;;;;;;;;;;20.60;92.40;;;;;;5054557;28;19909;-74
2022/11/29 08:12:32;;;;;;;;;;;20.50;92.60;;;;;;5067890;28;19920;-76
2022/11/29 08:14:59;;;;;;;;;;;20.50;92.70;;;;;;5071996;28;19917;-74
2022/11/29 08:17:25;;;;;;;;;;;20.30;92.40;;;;;;5071324;28;19924;-75
2022/11/29 08:19:52;;;;;;;;;;;20.30;92.50;;;;;;5057382;28;19917;-74
2022/11/29 08:22:19;;;;;;;;;;;20.20;92.60;;;;;;5073712;28;20011;-74
2022/11/29 08:24:46;;;;;;;;;;;20.20;92.90;;;;;;5074515;28;19912;-74
2022/11/29 08:27:12;;;;;;;;;;;20.10;92.90;;;;;;5073453;28;19966;-74
2022/11/29 08:29:39;;;;;;;;;;;20.10;93.00;;;;;;5072850;28;20666;-75
2022/11/29 08:32:06;;;;;;;;;;;20.00;93.00;;;;;;5072948;28;19912;-74
2022/11/29 08:34:32;;;;;;;;;;;20.00;93.20;;;;;;5073816;28;19913;-73
2022/11/29 08:36:59;;;;;;;;;;;20.00;93.40;;;;;;5072374;28;19926;-73
2022/11/29 08:39:26;;;;;;;;;;;19.90;93.20;;;;;;5073787;28;20313;-75
2022/11/29 08:41:53;;;;;;;;;;;19.80;93.40;;;;;;5073223;28;19912;-74
2022/11/29 08:44:19;;;;;;;;;;;19.80;93.40;;;;;;5073972;28;19956;-74
2022/11/29 08:49:30;;;;;;;;;;;19.60;93.80;;;;;;5073936;28;20416;-72
2022/11/29 08:54:41;;;;;;;;;;;19.60;94.00;;;;;;5074348;28;19918;-73
2022/11/29 08:57:08;;;;;;;;;;;19.60;94.00;;;;;;5072564;28;19977;-74
2022/11/29 08:59:35;;;;;;;;;;;19.60;94.00;;;;;;5072150;28;19912;-75
2022/11/29 09:02:02;;;;;;;;;;;19.60;94.10;;;;;;5072082;28;20325;-74
2022/11/29 09:04:28;;;;;;;;;;;19.60;94.10;;;;;;5059460;28;19913;-74
2022/11/29 09:06:55;;;;;;;;;;;19.60;94.30;;;;;;5061762;28;20367;-74
2022/11/29 09:09:22;;;;;;;;;;;19.50;94.50;;;;;;5073473;28;19908;-74
2022/11/29 09:11:48;;;;;;;;;;;19.50;94.60;;;;;;5071361;28;19971;-75
2022/11/29 09:14:16;;;;;;;;;;;19.50;94.90;;;;;;5073588;28;19966;-73
2022/11/29 09:16:42;;;;;;;;;;;19.50;94.80;;;;;;5071211;28;20007;-76
2022/11/29 09:19:09;;;;;;;;;;;19.50;94.70;;;;;;5071994;28;20400;-76
2022/11/29 09:21:36;;;;;;;;;;;19.60;94.80;;;;;;5071459;28;19954;-74
2022/11/29 09:24:05;;;;;;;;;;;19.60;94.70;;;;;;5054555;28;19970;-74
2022/11/29 09:26:33;;;;;;;;;;;19.60;94.60;;;;;;5071049;28;19912;-73
2022/11/29 09:29:02;;;;;;;;;;;19.50;94.70;;;;;;5072182;28;19920;-72
2022/11/29 09:31:30;;;;;;;;;;;19.50;94.50;;;;;;5072435;28;20002;-76
2022/11/29 09:33:57;;;;;;;;;;;19.50;94.50;;;;;;5073202;28;19920;-76
2022/11/29 09:36:23;;;;;;;;;;;19.50;94.60;;;;;;5071881;28;20370;-75
2022/11/29 09:38:50;;;;;;;;;;;19.50;94.60;;;;;;5070423;28;19913;-71
2022/11/29 09:41:34;;;;;;;;;;;19.50;94.70;;;;;;5071338;28;20359;-73
2022/11/29 09:44:01;;;;;;;;;;;19.40;94.90;;;;;;5072558;28;19915;-74
2022/11/29 09:46:46;;;;;;;;;;;19.40;95.00;;;;;;5074906;28;19917;-71
2022/11/29 09:49:13;;;;;;;;;;;19.40;95.10;;;;;;5063739;28;19913;-74
2022/11/29 09:51:49;;;;;;;;;;;19.40;95.10;;;;;;5080522;28;20006;-73
2022/11/29 09:54:23;;;;;;;;;;;19.50;95.20;;;;;;5070710;28;19909;-74
2022/11/29 09:56:54;;;;;;;;;;;19.40;95.30;;;;;;5069526;28;19920;-72
2022/11/29 09:59:41;;;;;;;;;;;19.30;95.50;;;;;;5072395;28;20271;-75
2022/11/29 10:02:26;;;;;;;;;;;19.40;95.60;;;;;;5060728;28;19920;-74
2022/11/29 10:04:56;;;;;;;;;;;19.50;95.70;;;;;;5073134;28;19913;-74
2022/11/29 10:07:32;;;;;;;;;;;19.50;95.50;;;;;;5070517;28;19989;-73
2022/11/29 10:10:05;;;;;;;;;;;19.40;95.50;;;;;;5054953;28;19909;-75
2022/11/29 10:12:41;;;;;;;;;;;19.40;95.40;;;;;;5071479;28;19921;-74
2022/11/29 10:15:15;;;;;;;;;;;19.50;95.30;;;;;;5071793;28;19913;-74
2022/11/29 10:18:00;;;;;;;;;;;19.40;95.10;;;;;;5069919;28;19920;-73
2022/11/29 10:20:29;;;;;;;;;;;19.40;95.30;;;;;;5072009;28;20199;-71
2022/11/29 10:23:02;;;;;;;;;;;19.40;95.50;;;;;;5070610;28;19920;-74
2022/11/29 10:25:48;;;;;;;;;;;19.30;95.50;;;;;;5071855;28;19958;-72
2022/11/29 10:28:16;;;;;;;;;;;19.40;95.50;;;;;;5066098;28;19919;-73
2022/11/29 10:30:43;;;;;;;;;;;19.40;95.70;;;;;;5071865;28;19909;-74
2022/11/29 10:33:19;;;;;;;;;;;19.40;95.80;;;;;;5070825;28;19921;-74
2022/11/29 10:35:47;;;;;;;;;;;19.40;95.90;;;;;;5071112;28;19939;-73
2022/11/29 10:38:14;;;;;;;;;;;19.40;95.70;;;;;;5059184;28;20286;-74
2022/11/29 10:40:43;;;;;;;;;;;19.40;95.50;;;;;;5072084;28;20018;-73
2022/11/29 10:43:10;;;;;;;;;;;19.30;95.60;;;;;;5071282;28;20005;-74
2022/11/29 10:45:54;;;;;;;;;;;19.20;95.70;;;;;;5064807;28;20386;-72
2022/11/29 10:48:32;;;;;;;;;;;19.20;95.80;;;;;;5058133;28;19978;-73
2022/11/29 10:51:00;;;;;;;;;;;19.10;96.00;;;;;;5070951;28;19916;-73
2022/11/29 10:53:30;;;;;;;;;;;19.10;96.10;;;;;;5074915;28;20007;-74
2022/11/29 10:56:01;;;;;;;;;;;19.10;96.20;;;;;;5073347;28;20409;-72
2022/11/29 10:58:29;;;;;;;;;;;19.00;96.10;;;;;;5074138;28;20275;-72
2022/11/29 11:01:00;;;;;;;;;;;19.00;96.20;;;;;;5056634;28;20321;-73
2022/11/29 11:03:32;;;;;;;;;;;19.00;96.30;;;;;;5068323;28;19917;-75
2022/11/29 11:06:04;;;;;;;;;;;19.00;96.20;;;;;;5075361;28;19908;-71
2022/11/29 11:08:33;;;;;;;;;;;19.10;95.70;;;;;;5074436;28;20259;-73
2022/11/29 11:11:01;;;;;;;;;;;19.00;95.40;;;;;;5074610;28;19921;-73
2022/11/29 11:13:28;;;;;;;;;;;19.00;95.20;;;;;;5073317;28;19952;-74
2022/11/29 11:15:58;;;;;;;;;;;19.00;95.00;;;;;;5056418;28;19959;-75
2022/11/29 11:18:29;;;;;;;;;;;19.00;94.80;;;;;;5074288;28;19916;-74
2022/11/29 11:20:57;;;;;;;;;;;19.00;94.50;;;;;;5074252;28;19955;-72
2022/11/29 11:23:26;;;;;;;;;;;19.00;94.20;;;;;;5074588;28;20417;-74
2022/11/29 11:25:58;;;;;;;;;;;19.00;94.30;;;;;;5074673;28;19919;-75
2022/11/29 11:28:30;;;;;;;;;;;19.00;94.50;;;;;;5070406;28;19921;-74
2022/11/29 11:30:58;;;;;;;;;;;18.90;94.00;;;;;;5064056;28;19912;-74
2022/11/29 11:33:25;;;;;;;;;;;19.00;93.60;;;;;;5075200;28;19912;-75
2022/11/29 11:36:07;;;;;;;;;;;18.90;93.30;;;;;;5071802;28;19935;-73
2022/11/29 11:38:35;;;;;;;;;;;18.90;93.30;;;;;;5069423;28;19920;-74
2022/11/29 11:41:06;;;;;;;;;;;18.90;93.10;;;;;;5073434;28;20476;-74
2022/11/29 11:43:33;;;;;;;;;;;18.90;93.10;;;;;;5074989;28;20668;-73
2022/11/29 11:46:00;;;;;;;;;;;19.00;93.00;;;;;;5073267;28;19913;-74
2022/11/29 11:48:27;;;;;;;;;;;18.90;92.80;;;;;;5073179;28;20278;-75
2022/11/29 11:50:58;;;;;;;;;;;18.90;92.40;;;;;;5075038;28;20007;-74
2022/11/29 11:53:25;;;;;;;;;;;18.90;92.30;;;;;;5072630;28;19916;-75
2022/11/29 11:55:57;;;;;;;;;;;18.90;92.50;;;;;;5063824;28;20007;-72
2022/11/29 11:58:26;;;;;;;;;;;18.90;92.60;;;;;;5071228;28;19954;-74
2022/11/29 12:00:54;;;;;;;;;;;18.90;92.50;;;;;;5073812;28;19916;-74
2022/11/29 12:03:26;;;;;;;;;;;19.00;92.60;;;;;;5074003;28;19912;-73
2022/11/29 12:05:54;;;;;;;;;;;19.00;92.10;;;;;;5074607;28;19912;-72
2022/11/29 12:08:21;;;;;;;;;;;18.90;92.10;;;;;;5074042;28;19991;-74
2022/11/29 12:10:49;;;;;;;;;;;18.90;91.90;;;;;;5054944;28;19920;-75
2022/11/29 12:13:23;;;;;;;;;;;18.90;92.20;;;;;;5072220;28;19938;-72
2022/11/29 12:15:51;;;;;;;;;;;18.80;92.10;;;;;;5073187;28;19917;-74
2022/11/29 12:18:38;;;;;;;;;;;18.80;92.10;;;;;;5070743;28;19962;-72
2022/11/29 12:21:11;;;;;;;;;;;18.80;92.20;;;;;;5071698;28;20007;-73
2022/11/29 12:23:44;;;;;;;;;;;18.80;92.30;;;;;;5073765;28;19955;-74
2022/11/29 12:26:26;;;;;;;;;;;18.80;92.30;;;;;;5072100;28;20366;-71
2022/11/29 12:28:52;;;;;;;;;;;18.80;92.20;;;;;;5071964;28;19916;-72
2022/11/29 12:31:38;;;;;;;;;;;18.80;92.20;;;;;;5062509;28;20015;-71
2022/11/29 12:34:22;;;;;;;;;;;18.80;92.20;;;;;;5073713;28;19948;-70
2022/11/29 12:37:03;;;;;;;;;;;18.80;92.30;;;;;;5071960;28;19927;-73
2022/11/29 12:39:30;;;;;;;;;;;18.80;92.30;;;;;;5053125;28;20323;-73
2022/11/29 12:42:11;;;;;;;;;;;18.80;92.30;;;;;;5063915;28;19909;-74
2022/11/29 12:44:44;;;;;;;;;;;18.80;92.10;;;;;;5071358;28;20397;-73
2022/11/29 12:47:24;;;;;;;;;;;18.80;92.00;;;;;;5072253;28;19918;-74
2022/11/29 12:49:51;;;;;;;;;;;18.80;92.10;;;;;;5069068;28;19920;-73
2022/11/29 12:52:26;;;;;;;;;;;18.80;92.10;;;;;;5064814;28;20038;-72
2022/11/29 12:55:15;;;;;;;;;;;18.80;92.10;;;;;;5070981;28;20386;-74
2022/11/29 12:57:41;;;;;;;;;;;18.80;92.30;;;;;;5068845;28;19916;-75
2022/11/29 13:00:13;;;;;;;;;;;18.80;92.00;;;;;;5071932;28;19928;-75
2022/11/29 13:02:55;;;;;;;;;;;18.80;92.00;;;;;;5068266;28;19913;-75
2022/11/29 13:05:39;;;;;;;;;;;18.80;91.80;;;;;;5052709;28;20004;-76
2022/11/29 13:08:21;;;;;;;;;;;18.80;92.00;;;;;;5072309;28;19918;-73
2022/11/29 13:10:54;;;;;;;;;;;18.70;91.90;;;;;;5072912;28;19970;-75
2022/11/29 13:13:20;;;;;;;;;;;18.80;91.60;;;;;;5050594;28;20291;-74
2022/11/29 13:15:50;;;;;;;;;;;18.80;91.80;;;;;;5056288;28;19924;-75
2022/11/29 13:18:22;;;;;;;;;;;18.70;91.90;;;;;;5058780;28;19971;-73
2022/11/29 13:21:01;;;;;;;;;;;18.70;91.90;;;;;;5066213;28;19917;-75
2022/11/29 13:23:27;;;;;;;;;;;18.70;92.10;;;;;;5063456;28;19935;-72
2022/11/29 13:25:56;;;;;;;;;;;18.80;92.30;;;;;;5082344;28;19912;-72
2022/11/29 13:28:33;;;;;;;;;;;18.80;92.20;;;;;;5079456;28;19951;-73
2022/11/29 13:31:01;;;;;;;;;;;18.80;92.30;;;;;;5072532;28;19919;-73
2022/11/29 13:33:35;;;;;;;;;;;18.80;92.30;;;;;;5070947;28;19919;-75
2022/11/29 13:36:07;;;;;;;;;;;18.80;92.10;;;;;;5040124;28;20290;-73
2022/11/29 13:38:54;;;;;;;;;;;18.80;92.00;;;;;;5052819;28;19909;-75
2022/11/29 13:41:30;;;;;;;;;;;18.80;92.30;;;;;;5054513;28;19917;-76
2022/11/29 13:44:09;;;;;;;;;;;18.80;92.10;;;;;;5071610;28;19923;-74
2022/11/29 13:46:43;;;;;;;;;;;18.70;91.90;;;;;;5070433;28;19912;-75
2022/11/29 13:49:41;;;;;;;;;;;18.70;91.90;;;;;;5056558;28;19917;-74
2022/11/29 13:52:15;;;;;;;;;;;18.70;92.00;;;;;;5068995;28;19916;-73
2022/11/29 13:54:42;;;;;;;;;;;18.70;92.10;;;;;;5070155;28;20404;-73
2022/11/29 13:57:09;;;;;;;;;;;18.70;92.10;;;;;;5071756;28;20036;-73
2022/11/29 13:59:37;;;;;;;;;;;18.70;92.20;;;;;;5071557;28;20015;-73
2022/11/29 14:02:23;;;;;;;;;;;18.70;92.20;;;;;;5071260;28;19954;-73
2022/11/29 14:04:51;;;;;;;;;;;18.70;92.20;;;;;;5069161;28;19919;-73
2022/11/29 14:07:18;;;;;;;;;;;18.70;92.00;;;;;;5071393;28;20291;-72
2022/11/29 14:10:05;;;;;;;;;;;18.60;92.30;;;;;;5071620;28;19974;-75
2022/11/29 14:12:41;;;;;;;;;;;18.60;91.80;;;;;;5071706;28;19959;-75
2022/11/29 14:15:10;;;;;;;;;;;18.60;92.10;;;;;;5070502;28;19916;-75
2022/11/29 14:17:43;;;;;;;;;;;18.60;92.20;;;;;;5071567;28;19925;-73
2022/11/29 14:20:22;;;;;;;;;;;18.50;92.20;;;;;;5070942;28;20362;-77
2022/11/29 14:23:04;;;;;;;;;;;18.50;92.00;;;;;;5071172;28;20370;-75
2022/11/29 14:25:49;;;;;;;;;;;18.50;91.90;;;;;;5064263;28;19920;-75
2022/11/29 14:28:15;;;;;;;;;;;18.50;92.00;;;;;;5071082;28;19913;-77
2022/11/29 14:30:42;;;;;;;;;;;18.50;92.00;;;;;;5071804;28;19915;-76
2022/11/29 14:33:12;;;;;;;;;;;18.40;92.40;;;;;;5070667;28;19908;-75
2022/11/29 14:35:45;;;;;;;;;;;18.40;92.20;;;;;;5070473;28;20011;-76
2022/11/29 14:38:17;;;;;;;;;;;18.40;92.00;;;;;;5070433;28;19913;-77
2022/11/29 14:40:51;;;;;;;;;;;18.40;92.00;;;;;;5071278;28;19981;-74
2022/11/29 14:43:28;;;;;;;;;;;18.30;92.00;;;;;;5067385;28;19913;-76
2022/11/29 14:46:13;;;;;;;;;;;18.30;92.20;;;;;;5071403;28;19912;-74
2022/11/29 14:48:55;;;;;;;;;;;18.30;92.10;;;;;;5071455;28;19915;-74
2022/11/29 14:51:26;;;;;;;;;;;18.30;92.20;;;;;;5065652;28;19913;-76
2022/11/29 14:54:18;;;;;;;;;;;18.30;92.10;;;;;;5061776;28;20398;-76